createdAt,value
2023-05-12T00:00:58.394Z,98212.53
2023-05-12T00:06:03.754Z,98212.13
2023-05-12T00:11:05.671Z,98230.19
2023-05-12T00:16:07.758Z,98221.56
2023-05-12T00:21:09.694Z,98224.69
2023-05-12T00:26:11.558Z,98227.06
2023-05-12T00:31:14.433Z,98219.59
2023-05-12T00:36:16.374Z,98229.38
2023-05-12T00:41:18.522Z,98226.25
2023-05-12T00:46:21.404Z,98220.03
2023-05-12T00:51:24.035Z,98218.47
2023-05-12T00:56:26.069Z,98223.94
2023-05-12T01:01:28.380Z,98224.75
2023-05-12T01:06:39.924Z,98220.84
2023-05-12T01:11:43.342Z,98221.22
2023-05-12T01:16:53.186Z,98209.06
2023-05-12T01:21:55.820Z,98210.63
2023-05-12T01:26:58.697Z,98210.69
2023-05-12T01:32:00.789Z,98213.84
2023-05-12T01:37:02.830Z,98216.97
2023-05-12T01:42:05.950Z,98220.09
2023-05-12T01:47:10.061Z,98220.09
2023-05-12T01:52:13.990Z,98227.94
2023-05-12T01:57:16.194Z,98231.84
2023-05-12T02:02:18.564Z,98227.16
2023-05-12T02:07:20.503Z,98231.06
2023-05-12T02:12:22.820Z,98233.41
2023-05-12T02:17:25.252Z,98235.75
2023-05-12T02:22:27.375Z,98227.94
2023-05-12T02:27:32.552Z,98236.13
2023-05-12T02:32:34.779Z,98229.47
2023-05-12T02:37:36.919Z,98235.75
2023-05-12T02:42:40.445Z,98227.94
2023-05-12T02:47:42.468Z,98235.38
2023-05-12T02:52:45.090Z,98231.06
2023-05-12T02:57:47.256Z,98224.81
2023-05-12T03:02:49.141Z,98230.31
2023-05-12T03:07:51.124Z,98231.47
2023-05-12T03:12:52.962Z,98232.63
2023-05-12T03:17:55.718Z,98229.53
2023-05-12T03:22:57.878Z,98229.91
2023-05-12T03:27:59.952Z,98231.47
2023-05-12T03:33:01.989Z,98241.25
2023-05-12T03:38:04.998Z,98245.13
2023-05-12T03:43:06.882Z,98240.47
2023-05-12T03:48:08.863Z,98248.28
2023-05-12T03:53:10.905Z,98240.47
2023-05-12T03:58:12.818Z,98242.78
2023-05-12T04:03:15.615Z,98242.03
2023-05-12T04:08:17.579Z,98245.91
2023-05-12T04:13:19.445Z,98250.59
2023-05-12T04:18:21.441Z,98254.50
2023-05-12T04:23:23.690Z,98253.34
2023-05-12T04:28:25.646Z,98247.47
2023-05-12T04:33:28.314Z,98252.97
2023-05-12T04:38:30.533Z,98257.28
2023-05-12T04:48:42.138Z,98262.34
2023-05-12T04:53:44.118Z,98254.53
2023-05-12T04:58:48.353Z,98249.84
2023-05-12T05:03:50.538Z,98261.94
2023-05-12T05:08:53.282Z,98255.31
2023-05-12T05:13:55.217Z,98263.91
2023-05-12T05:18:58.571Z,98270.94
2023-05-12T05:24:00.876Z,98279.19
2023-05-12T05:29:04.832Z,98276.41
2023-05-12T05:34:07.876Z,98281.88
2023-05-12T05:39:10.554Z,98268.97
2023-05-12T05:44:12.748Z,98282.25
2023-05-12T05:49:14.955Z,98290.47
2023-05-12T05:54:17.281Z,98294.38
2023-05-12T05:59:20.524Z,98288.88
2023-05-12T06:04:23.449Z,98295.13
2023-05-12T06:09:25.715Z,98303.34
2023-05-12T06:14:27.665Z,98306.06
2023-05-12T06:19:30.317Z,98306.81
2023-05-12T06:24:32.153Z,98306.84
2023-05-12T06:29:34.316Z,98317.00
2023-05-12T06:34:36.211Z,98314.66
2023-05-12T06:39:38.418Z,98313.06
2023-05-12T06:44:42.023Z,98307.47
2023-05-12T06:49:44.406Z,98308.56
2023-05-12T06:54:51.051Z,98302.16
2023-05-12T06:59:54.010Z,98314.22
2023-05-12T07:04:56.836Z,98316.44
2023-05-12T07:09:59.168Z,98309.72
2023-05-12T07:15:02.137Z,98313.50
2023-05-12T07:20:05.922Z,98313.69
2023-05-12T07:25:08.313Z,98307.94
2023-05-12T07:30:11.328Z,98310.81
2023-05-12T07:35:13.192Z,98322.28
2023-05-12T07:40:15.533Z,98315.78
2023-05-12T07:45:23.080Z,98324.13
2023-05-12T07:50:25.030Z,98318.31
2023-05-12T07:55:26.942Z,98314.13
2023-05-12T08:00:29.171Z,98313.19
2023-05-12T08:05:31.390Z,98315.56
2023-05-12T08:10:33.244Z,98325.03
2023-05-12T08:15:35.218Z,98323.38
2023-05-12T08:20:38.669Z,98328.44
2023-05-12T08:25:41.353Z,98312.91
2023-05-12T08:30:45.257Z,98324.09
2023-05-12T08:35:47.203Z,98314.06
2023-05-12T08:41:10.999Z,98308.78
2023-05-12T08:46:13.550Z,98310.84
2023-05-12T08:51:15.924Z,98315.28
2023-05-12T09:01:26.699Z,98314.13
2023-05-12T09:06:29.820Z,98315.69
2023-05-12T09:11:32.528Z,98314.41
2023-05-12T09:16:40.051Z,98308.44
2023-05-12T09:21:42.661Z,98319.00
2023-05-12T09:26:54.589Z,98313.03
2023-05-12T09:32:02.562Z,98316.13
2023-05-12T09:37:06.958Z,98308.91
2023-05-12T09:42:13.286Z,98309.25
2023-05-12T09:47:16.389Z,98318.75
2023-05-12T09:52:23.026Z,98308.41
2023-05-12T09:57:26.626Z,98314.59
2023-05-12T10:02:28.701Z,98317.16
2023-05-12T10:07:31.436Z,98310.50
2023-05-12T10:12:35.698Z,98318.41
2023-05-12T10:17:37.969Z,98310.47
2023-05-12T10:22:41.127Z,98298.78
2023-05-12T10:27:44.420Z,98315.16
2023-05-12T10:32:47.044Z,98316.72
2023-05-12T10:37:49.788Z,98311.78
2023-05-12T10:42:52.873Z,98314.88
2023-05-12T10:48:06.199Z,98309.22
2023-05-12T10:53:11.458Z,98310.09
2023-05-12T10:58:13.659Z,98320.22
2023-05-12T11:03:18.890Z,98310.66
2023-05-12T11:13:25.323Z,98318.41
2023-05-12T11:18:27.241Z,98312.25
2023-05-12T11:23:29.685Z,98302.47
2023-05-12T11:28:41.370Z,98311.44
2023-05-12T11:33:43.317Z,98308.56
2023-05-12T11:38:51.741Z,98300.00
2023-05-12T11:43:53.657Z,98306.06
2023-05-12T11:48:59.899Z,98307.06
2023-05-12T11:54:01.948Z,98317.38
2023-05-12T11:59:03.834Z,98316.94
2023-05-12T12:04:06.342Z,98318.09
2023-05-12T12:09:08.726Z,98316.50
2023-05-12T12:14:10.606Z,98322.63
2023-05-12T12:19:12.567Z,98326.63
2023-05-12T12:24:14.733Z,98333.03
2023-05-12T12:29:17.342Z,98336.25
2023-05-12T12:34:19.390Z,98343.16
2023-05-12T12:39:23.290Z,98340.16
2023-05-12T12:44:25.196Z,98341.13
2023-05-12T12:49:27.031Z,98339.53
2023-05-12T12:54:29.480Z,98336.75
2023-05-12T12:59:31.327Z,98332.91
2023-05-12T13:04:33.739Z,98329.44
2023-05-12T13:09:35.626Z,98327.41
2023-05-12T13:14:37.467Z,98326.69
2023-05-12T13:19:39.328Z,98322.03
2023-05-12T13:24:41.545Z,98325.34
2023-05-12T13:29:47.365Z,98327.06
2023-05-12T13:34:49.317Z,98327.94
2023-05-12T13:39:51.271Z,98333.13
2023-05-12T13:44:53.127Z,98337.53
2023-05-12T13:49:56.610Z,98340.06
2023-05-12T13:54:58.512Z,98338.69
2023-05-12T14:00:00.895Z,98339.09
2023-05-12T14:05:02.776Z,98323.84
2023-05-12T14:10:04.926Z,98326.84
2023-05-12T14:15:23.546Z,98324.31
2023-05-12T14:20:29.860Z,98337.72
2023-05-12T14:25:31.832Z,98329.34
2023-05-12T14:30:35.332Z,98348.78
2023-05-12T14:35:37.265Z,98354.34
2023-05-12T14:40:40.400Z,98360.53
2023-05-12T14:45:42.516Z,98364.09
2023-05-12T14:50:44.352Z,98381.47
2023-05-12T14:55:46.343Z,98359.03
2023-05-12T15:00:48.684Z,98361.00
2023-05-12T15:10:55.480Z,98350.72
2023-05-12T15:15:57.367Z,98355.75
2023-05-12T15:20:59.282Z,98356.06
2023-05-12T15:26:15.416Z,98335.22
2023-05-12T15:31:22.952Z,98345.91
2023-05-12T15:36:24.864Z,98336.28
2023-05-12T15:41:26.788Z,98346.53
2023-05-12T15:46:29.006Z,98349.59
2023-05-12T15:51:31.491Z,98335.88
2023-05-12T15:56:33.308Z,98339.75
2023-05-12T16:01:35.393Z,98334.88
2023-05-12T16:06:37.216Z,98335.91
2023-05-12T16:11:39.649Z,98352.75
2023-05-12T16:16:48.355Z,98361.34
2023-05-12T16:21:50.341Z,98356.38
2023-05-12T16:26:52.204Z,98355.13
2023-05-12T16:31:54.116Z,98347.69
2023-05-12T16:36:55.955Z,98342.69
2023-05-12T16:41:58.427Z,98356.53
2023-05-12T16:47:00.235Z,98372.31
2023-05-12T16:52:02.232Z,98385.63
2023-05-12T16:57:04.243Z,98392.75
2023-05-12T17:02:06.443Z,98394.09
2023-05-12T17:07:08.633Z,98404.94
2023-05-12T17:12:11.097Z,98403.50
2023-05-12T17:17:13.370Z,98406.75
2023-05-12T17:22:16.050Z,98393.75
2023-05-12T17:27:18.359Z,98397.16
2023-05-12T17:32:20.314Z,98397.09
2023-05-12T17:37:22.804Z,98398.94
2023-05-12T17:42:24.787Z,98397.25
2023-05-12T17:47:30.254Z,98400.66
2023-05-12T17:52:32.722Z,98402.59
2023-05-12T17:57:34.798Z,98395.03
2023-05-12T18:02:38.331Z,98396.59
2023-05-12T18:07:40.404Z,98392.25
2023-05-12T18:12:42.269Z,98397.75
2023-05-12T18:17:44.247Z,98390.25
2023-05-12T18:22:46.491Z,98387.50
2023-05-12T18:27:49.033Z,98400.88
2023-05-12T18:32:51.140Z,98401.66
2023-05-12T18:37:53.259Z,98399.25
2023-05-12T18:42:55.087Z,98414.19
2023-05-12T18:47:57.043Z,98415.88
2023-05-12T18:52:58.961Z,98426.97
2023-05-12T18:58:00.792Z,98428.63
2023-05-12T19:03:03.191Z,98438.91
2023-05-12T19:08:05.723Z,98437.47
2023-05-12T19:13:08.175Z,98439.13
2023-05-12T19:18:10.078Z,98446.75
2023-05-12T19:23:12.234Z,98450.00
2023-05-12T19:28:14.076Z,98466.91
2023-05-12T19:33:17.334Z,98470.53
2023-05-12T19:38:19.655Z,98475.69
2023-05-12T19:43:21.736Z,98477.22
2023-05-12T19:48:23.590Z,98476.44
2023-05-12T19:53:25.661Z,98482.78
2023-05-12T19:58:27.622Z,98483.63
2023-05-12T20:03:29.848Z,98480.91
2023-05-12T20:08:32.492Z,98480.91
2023-05-12T20:13:34.431Z,98489.19
2023-05-12T20:18:36.356Z,98496.28
2023-05-12T20:23:38.336Z,98501.78
2023-05-12T20:28:40.816Z,98506.50
2023-05-12T20:33:42.753Z,98495.91
2023-05-12T20:38:44.628Z,98496.28
2023-05-12T20:43:46.538Z,98494.72
2023-05-12T20:48:48.523Z,98493.94
2023-05-12T20:53:50.710Z,98497.03
2023-05-12T20:58:52.879Z,98507.13
2023-05-12T21:03:54.746Z,98514.13
2023-05-12T21:08:56.593Z,98503.88
2023-05-12T21:13:58.476Z,98501.50
2023-05-12T21:19:00.327Z,98506.22
2023-05-12T21:24:02.215Z,98510.94
2023-05-12T21:29:04.363Z,98512.16
2023-05-12T21:34:06.159Z,98510.97
2023-05-12T21:39:08.102Z,98517.19
2023-05-12T21:44:11.192Z,98518.41
2023-05-12T21:49:13.936Z,98529.75
2023-05-12T21:54:15.831Z,98535.19
2023-05-12T21:59:17.721Z,98536.53
2023-05-12T22:04:19.994Z,98532.63
2023-05-12T22:09:22.314Z,98538.50
2023-05-12T22:14:24.473Z,98549.81
2023-05-12T22:19:26.656Z,98556.03
2023-05-12T22:24:28.576Z,98554.78
2023-05-12T22:29:30.497Z,98551.84
2023-05-12T22:34:32.356Z,98562.31
2023-05-12T22:39:34.205Z,98547.50
2023-05-12T22:44:36.061Z,98557.22
2023-05-12T22:49:38.043Z,98553.72
2023-05-12T22:54:39.891Z,98570.50
2023-05-12T22:59:41.720Z,98583.09
2023-05-12T23:04:44.049Z,98578.44
2023-05-12T23:09:45.966Z,98577.63
2023-05-12T23:14:47.935Z,98566.59
2023-05-12T23:19:50.202Z,98572.72
2023-05-12T23:24:52.704Z,98577.94
2023-05-12T23:29:54.539Z,98567.63
2023-05-12T23:34:56.545Z,98579.94
2023-05-12T23:39:58.427Z,98572.19
2023-05-12T23:45:00.314Z,98572.75
2023-05-12T23:50:02.241Z,98575.53
2023-05-12T23:55:04.328Z,98580.63
